sensor_id;sensor_type;location;lat;lon;timestamp;P1;durP1;ratioP1;P2;durP2;ratioP2
61617;SDS011;47518;51.776;9.370;2023-02-27T00:01:30;3.83;;;2.40;;
61617;SDS011;47518;51.776;9.370;2023-02-27T00:04:00;2.70;;;2.50;;
61617;SDS011;47518;51.776;9.370;2023-02-27T00:06:29;5.07;;;2.65;;
61617;SDS011;47518;51.776;9.370;2023-02-27T00:08:55;4.28;;;2.75;;
61617;SDS011;47518;51.776;9.370;2023-02-27T00:11:20;3.53;;;2.70;;
61617;SDS011;47518;51.776;9.370;2023-02-27T00:13:45;3.38;;;2.92;;
61617;SDS011;47518;51.776;9.370;2023-02-27T00:16:11;3.50;;;2.80;;
61617;SDS011;47518;51.776;9.370;2023-02-27T00:18:36;3.63;;;2.70;;
61617;SDS011;47518;51.776;9.370;2023-02-27T00:21:02;3.38;;;2.80;;
61617;SDS011;47518;51.776;9.370;2023-02-27T00:23:27;3.28;;;2.83;;
61617;SDS011;47518;51.776;9.370;2023-02-27T00:25:52;3.35;;;2.95;;
61617;SDS011;47518;51.776;9.370;2023-02-27T00:28:18;5.95;;;3.42;;
61617;SDS011;47518;51.776;9.370;2023-02-27T00:30:44;5.32;;;3.70;;
61617;SDS011;47518;51.776;9.370;2023-02-27T00:33:09;6.50;;;3.85;;
61617;SDS011;47518;51.776;9.370;2023-02-27T00:35:35;7.53;;;4.40;;
61617;SDS011;47518;51.776;9.370;2023-02-27T00:38:00;7.85;;;3.90;;
61617;SDS011;47518;51.776;9.370;2023-02-27T00:40:25;4.13;;;3.00;;
61617;SDS011;47518;51.776;9.370;2023-02-27T00:42:51;5.13;;;3.30;;
61617;SDS011;47518;51.776;9.370;2023-02-27T00:45:16;8.13;;;4.15;;
61617;SDS011;47518;51.776;9.370;2023-02-27T00:47:43;6.30;;;4.00;;
61617;SDS011;47518;51.776;9.370;2023-02-27T00:50:09;8.35;;;4.13;;
61617;SDS011;47518;51.776;9.370;2023-02-27T00:52:34;7.60;;;4.40;;
61617;SDS011;47518;51.776;9.370;2023-02-27T00:55:00;9.95;;;4.22;;
61617;SDS011;47518;51.776;9.370;2023-02-27T00:57:25;8.30;;;4.70;;
61617;SDS011;47518;51.776;9.370;2023-02-27T00:59:51;11.00;;;6.47;;
61617;SDS011;47518;51.776;9.370;2023-02-27T01:02:16;11.48;;;6.85;;
61617;SDS011;47518;51.776;9.370;2023-02-27T01:04:42;11.43;;;7.20;;
61617;SDS011;47518;51.776;9.370;2023-02-27T01:07:08;8.70;;;5.55;;
61617;SDS011;47518;51.776;9.370;2023-02-27T01:09:34;8.57;;;5.45;;
61617;SDS011;47518;51.776;9.370;2023-02-27T01:11:59;6.55;;;4.40;;
61617;SDS011;47518;51.776;9.370;2023-02-27T01:14:24;6.88;;;4.50;;
61617;SDS011;47518;51.776;9.370;2023-02-27T01:16:50;6.53;;;4.53;;
61617;SDS011;47518;51.776;9.370;2023-02-27T01:19:15;5.55;;;4.18;;
61617;SDS011;47518;51.776;9.370;2023-02-27T01:21:41;4.75;;;3.70;;
61617;SDS011;47518;51.776;9.370;2023-02-27T01:24:06;5.13;;;3.70;;
61617;SDS011;47518;51.776;9.370;2023-02-27T01:26:32;5.03;;;4.20;;
61617;SDS011;47518;51.776;9.370;2023-02-27T01:28:58;4.60;;;4.10;;
61617;SDS011;47518;51.776;9.370;2023-02-27T01:31:23;6.53;;;5.15;;
61617;SDS011;47518;51.776;9.370;2023-02-27T01:33:48;6.47;;;4.95;;
61617;SDS011;47518;51.776;9.370;2023-02-27T01:36:14;6.38;;;5.10;;
61617;SDS011;47518;51.776;9.370;2023-02-27T01:38:39;8.55;;;5.28;;
61617;SDS011;47518;51.776;9.370;2023-02-27T01:41:05;7.07;;;5.10;;
61617;SDS011;47518;51.776;9.370;2023-02-27T01:43:31;5.68;;;4.80;;
61617;SDS011;47518;51.776;9.370;2023-02-27T01:45:57;6.53;;;5.15;;
61617;SDS011;47518;51.776;9.370;2023-02-27T01:48:26;8.18;;;5.20;;
61617;SDS011;47518;51.776;9.370;2023-02-27T01:50:57;7.57;;;5.15;;
61617;SDS011;47518;51.776;9.370;2023-02-27T01:53:27;7.15;;;4.32;;
61617;SDS011;47518;51.776;9.370;2023-02-27T01:55:57;4.93;;;3.75;;
61617;SDS011;47518;51.776;9.370;2023-02-27T01:58:28;8.65;;;6.13;;
61617;SDS011;47518;51.776;9.370;2023-02-27T02:00:54;10.13;;;7.00;;
61617;SDS011;47518;51.776;9.370;2023-02-27T02:47:47;3.90;;;3.40;;
61617;SDS011;47518;51.776;9.370;2023-02-27T02:55:59;5.50;;;3.10;;
61617;SDS011;47518;51.776;9.370;2023-02-27T02:58:35;4.05;;;3.40;;
61617;SDS011;47518;51.776;9.370;2023-02-27T03:01:12;3.95;;;3.35;;
61617;SDS011;47518;51.776;9.370;2023-02-27T03:03:42;3.95;;;3.03;;
61617;SDS011;47518;51.776;9.370;2023-02-27T03:06:23;4.23;;;3.30;;
61617;SDS011;47518;51.776;9.370;2023-02-27T03:08:55;4.72;;;3.70;;
61617;SDS011;47518;51.776;9.370;2023-02-27T03:11:25;4.78;;;3.33;;
61617;SDS011;47518;51.776;9.370;2023-02-27T03:13:55;4.28;;;3.58;;
61617;SDS011;47518;51.776;9.370;2023-02-27T03:16:32;4.87;;;3.50;;
61617;SDS011;47518;51.776;9.370;2023-02-27T03:19:04;6.65;;;4.00;;
61617;SDS011;47518;51.776;9.370;2023-02-27T03:21:37;6.53;;;3.92;;
61617;SDS011;47518;51.776;9.370;2023-02-27T03:24:11;5.13;;;3.40;;
61617;SDS011;47518;51.776;9.370;2023-02-27T03:26:41;4.22;;;3.60;;
61617;SDS011;47518;51.776;9.370;2023-02-27T03:29:10;5.68;;;3.75;;
61617;SDS011;47518;51.776;9.370;2023-02-27T03:34:30;4.27;;;3.47;;
61617;SDS011;47518;51.776;9.370;2023-02-27T03:37:09;4.00;;;3.50;;
61617;SDS011;47518;51.776;9.370;2023-02-27T03:39:45;4.65;;;3.40;;
61617;SDS011;47518;51.776;9.370;2023-02-27T03:45:04;5.30;;;3.60;;
61617;SDS011;47518;51.776;9.370;2023-02-27T03:47:48;3.50;;;3.20;;
61617;SDS011;47518;51.776;9.370;2023-02-27T03:50:13;5.00;;;3.58;;
61617;SDS011;47518;51.776;9.370;2023-02-27T03:52:39;3.83;;;3.53;;
61617;SDS011;47518;51.776;9.370;2023-02-27T03:55:08;4.03;;;3.17;;
61617;SDS011;47518;51.776;9.370;2023-02-27T03:57:37;3.37;;;3.03;;
61617;SDS011;47518;51.776;9.370;2023-02-27T04:00:04;3.73;;;3.20;;
61617;SDS011;47518;51.776;9.370;2023-02-27T04:02:31;3.53;;;3.13;;
61617;SDS011;47518;51.776;9.370;2023-02-27T04:04:57;6.10;;;3.70;;
61617;SDS011;47518;51.776;9.370;2023-02-27T04:20:36;8.87;;;6.77;;
61617;SDS011;47518;51.776;9.370;2023-02-27T04:23:10;8.70;;;7.07;;
61617;SDS011;47518;51.776;9.370;2023-02-27T04:25:45;9.20;;;6.80;;
61617;SDS011;47518;51.776;9.370;2023-02-27T04:28:23;8.03;;;6.03;;
61617;SDS011;47518;51.776;9.370;2023-02-27T04:43:56;5.77;;;4.60;;
61617;SDS011;47518;51.776;9.370;2023-02-27T04:46:25;5.53;;;4.53;;
61617;SDS011;47518;51.776;9.370;2023-02-27T04:48:56;4.20;;;3.70;;
61617;SDS011;47518;51.776;9.370;2023-02-27T04:51:28;4.13;;;3.50;;
61617;SDS011;47518;51.776;9.370;2023-02-27T05:07:06;5.67;;;3.30;;
61617;SDS011;47518;51.776;9.370;2023-02-27T05:12:27;3.80;;;3.50;;
61617;SDS011;47518;51.776;9.370;2023-02-27T05:14:58;4.43;;;3.23;;
61617;SDS011;47518;51.776;9.370;2023-02-27T05:17:33;4.03;;;3.27;;
61617;SDS011;47518;51.776;9.370;2023-02-27T05:20:03;4.38;;;3.35;;
61617;SDS011;47518;51.776;9.370;2023-02-27T05:22:47;3.67;;;3.30;;
61617;SDS011;47518;51.776;9.370;2023-02-27T05:25:25;3.13;;;2.88;;
61617;SDS011;47518;51.776;9.370;2023-02-27T05:38:37;4.10;;;2.93;;
61617;SDS011;47518;51.776;9.370;2023-02-27T05:41:08;3.85;;;3.30;;
61617;SDS011;47518;51.776;9.370;2023-02-27T05:43:41;4.07;;;3.40;;
61617;SDS011;47518;51.776;9.370;2023-02-27T05:46:12;3.63;;;3.33;;
61617;SDS011;47518;51.776;9.370;2023-02-27T05:48:46;3.50;;;3.20;;
61617;SDS011;47518;51.776;9.370;2023-02-27T05:51:17;3.33;;;3.03;;
61617;SDS011;47518;51.776;9.370;2023-02-27T05:53:47;3.43;;;3.13;;
61617;SDS011;47518;51.776;9.370;2023-02-27T05:56:20;6.43;;;3.67;;
61617;SDS011;47518;51.776;9.370;2023-02-27T05:58:49;6.37;;;4.40;;
61617;SDS011;47518;51.776;9.370;2023-02-27T06:01:18;11.53;;;6.50;;
61617;SDS011;47518;51.776;9.370;2023-02-27T06:03:43;15.87;;;9.17;;
61617;SDS011;47518;51.776;9.370;2023-02-27T06:06:12;13.77;;;7.00;;
61617;SDS011;47518;51.776;9.370;2023-02-27T06:08:40;14.90;;;6.90;;
61617;SDS011;47518;51.776;9.370;2023-02-27T06:35:22;8.88;;;5.15;;
61617;SDS011;47518;51.776;9.370;2023-02-27T06:37:48;6.53;;;4.30;;
61617;SDS011;47518;51.776;9.370;2023-02-27T06:40:13;7.20;;;4.23;;
61617;SDS011;47518;51.776;9.370;2023-02-27T06:42:45;11.13;;;5.32;;
61617;SDS011;47518;51.776;9.370;2023-02-27T06:45:11;7.60;;;5.00;;
61617;SDS011;47518;51.776;9.370;2023-02-27T06:47:37;8.25;;;5.45;;
61617;SDS011;47518;51.776;9.370;2023-02-27T06:50:03;8.73;;;5.77;;
61617;SDS011;47518;51.776;9.370;2023-02-27T06:52:30;10.80;;;5.50;;
61617;SDS011;47518;51.776;9.370;2023-02-27T06:55:04;9.13;;;5.40;;
61617;SDS011;47518;51.776;9.370;2023-02-27T06:57:31;15.90;;;5.70;;
61617;SDS011;47518;51.776;9.370;2023-02-27T06:59:56;6.82;;;5.28;;
61617;SDS011;47518;51.776;9.370;2023-02-27T07:02:21;8.43;;;5.03;;
61617;SDS011;47518;51.776;9.370;2023-02-27T07:04:49;9.85;;;5.85;;
61617;SDS011;47518;51.776;9.370;2023-02-27T07:07:15;8.30;;;5.70;;
61617;SDS011;47518;51.776;9.370;2023-02-27T07:09:43;13.55;;;6.70;;
61617;SDS011;47518;51.776;9.370;2023-02-27T07:12:09;11.60;;;6.00;;
61617;SDS011;47518;51.776;9.370;2023-02-27T07:14:34;10.52;;;6.03;;
61617;SDS011;47518;51.776;9.370;2023-02-27T07:16:59;8.93;;;5.35;;
61617;SDS011;47518;51.776;9.370;2023-02-27T07:19:28;9.63;;;6.05;;
61617;SDS011;47518;51.776;9.370;2023-02-27T07:21:55;11.60;;;5.78;;
61617;SDS011;47518;51.776;9.370;2023-02-27T07:24:20;9.60;;;5.53;;
61617;SDS011;47518;51.776;9.370;2023-02-27T07:26:45;9.18;;;5.40;;
61617;SDS011;47518;51.776;9.370;2023-02-27T07:29:11;7.97;;;5.55;;
61617;SDS011;47518;51.776;9.370;2023-02-27T07:31:38;7.32;;;5.10;;
61617;SDS011;47518;51.776;9.370;2023-02-27T07:34:04;9.32;;;5.10;;
61617;SDS011;47518;51.776;9.370;2023-02-27T07:36:29;11.38;;;6.40;;
61617;SDS011;47518;51.776;9.370;2023-02-27T07:38:55;11.18;;;6.93;;
61617;SDS011;47518;51.776;9.370;2023-02-27T07:41:22;10.65;;;6.65;;
61617;SDS011;47518;51.776;9.370;2023-02-27T07:43:47;9.98;;;5.57;;
61617;SDS011;47518;51.776;9.370;2023-02-27T07:46:12;9.15;;;5.68;;
61617;SDS011;47518;51.776;9.370;2023-02-27T07:48:38;12.65;;;5.90;;
61617;SDS011;47518;51.776;9.370;2023-02-27T07:51:04;7.45;;;4.75;;
61617;SDS011;47518;51.776;9.370;2023-02-27T07:53:30;10.38;;;6.38;;
61617;SDS011;47518;51.776;9.370;2023-02-27T07:55:55;12.07;;;6.53;;
61617;SDS011;47518;51.776;9.370;2023-02-27T07:58:21;15.32;;;6.53;;
61617;SDS011;47518;51.776;9.370;2023-02-27T08:00:46;9.43;;;6.18;;
61617;SDS011;47518;51.776;9.370;2023-02-27T08:03:11;9.07;;;6.28;;
61617;SDS011;47518;51.776;9.370;2023-02-27T08:05:37;13.20;;;6.00;;
61617;SDS011;47518;51.776;9.370;2023-02-27T08:08:02;10.88;;;6.40;;
61617;SDS011;47518;51.776;9.370;2023-02-27T08:10:28;12.35;;;6.97;;
61617;SDS011;47518;51.776;9.370;2023-02-27T08:12:54;11.48;;;6.05;;
61617;SDS011;47518;51.776;9.370;2023-02-27T08:15:20;9.68;;;6.00;;
61617;SDS011;47518;51.776;9.370;2023-02-27T08:17:45;9.13;;;5.55;;
61617;SDS011;47518;51.776;9.370;2023-02-27T08:20:11;7.22;;;4.80;;
61617;SDS011;47518;51.776;9.370;2023-02-27T08:22:38;9.27;;;5.13;;
61617;SDS011;47518;51.776;9.370;2023-02-27T08:25:05;5.70;;;4.70;;
61617;SDS011;47518;51.776;9.370;2023-02-27T08:27:32;6.60;;;5.05;;
61617;SDS011;47518;51.776;9.370;2023-02-27T08:29:58;7.63;;;5.13;;
61617;SDS011;47518;51.776;9.370;2023-02-27T08:32:27;6.22;;;4.70;;
61617;SDS011;47518;51.776;9.370;2023-02-27T08:34:53;12.85;;;5.45;;
61617;SDS011;47518;51.776;9.370;2023-02-27T08:37:18;6.53;;;4.82;;
61617;SDS011;47518;51.776;9.370;2023-02-27T08:39:44;6.97;;;4.80;;
61617;SDS011;47518;51.776;9.370;2023-02-27T08:42:09;9.23;;;5.35;;
61617;SDS011;47518;51.776;9.370;2023-02-27T08:44:34;8.80;;;5.20;;
61617;SDS011;47518;51.776;9.370;2023-02-27T08:47:03;8.60;;;5.10;;
61617;SDS011;47518;51.776;9.370;2023-02-27T08:49:28;9.40;;;5.63;;
61617;SDS011;47518;51.776;9.370;2023-02-27T08:51:53;10.20;;;5.47;;
61617;SDS011;47518;51.776;9.370;2023-02-27T08:54:19;7.50;;;5.05;;
61617;SDS011;47518;51.776;9.370;2023-02-27T08:56:44;11.30;;;5.15;;
61617;SDS011;47518;51.776;9.370;2023-02-27T08:59:11;10.90;;;5.30;;
61617;SDS011;47518;51.776;9.370;2023-02-27T09:01:36;8.73;;;5.57;;
61617;SDS011;47518;51.776;9.370;2023-02-27T09:04:02;8.80;;;5.80;;
61617;SDS011;47518;51.776;9.370;2023-02-27T09:06:29;8.88;;;5.32;;
61617;SDS011;47518;51.776;9.370;2023-02-27T09:08:56;9.73;;;5.65;;
61617;SDS011;47518;51.776;9.370;2023-02-27T09:11:22;10.45;;;5.30;;
61617;SDS011;47518;51.776;9.370;2023-02-27T09:13:48;11.52;;;5.53;;
61617;SDS011;47518;51.776;9.370;2023-02-27T09:16:15;10.30;;;5.30;;
61617;SDS011;47518;51.776;9.370;2023-02-27T09:18:44;9.00;;;5.20;;
61617;SDS011;47518;51.776;9.370;2023-02-27T09:21:09;14.00;;;5.68;;
61617;SDS011;47518;51.776;9.370;2023-02-27T09:23:34;6.20;;;4.80;;
61617;SDS011;47518;51.776;9.370;2023-02-27T09:26:00;8.35;;;5.03;;
61617;SDS011;47518;51.776;9.370;2023-02-27T09:28:25;10.20;;;4.60;;
61617;SDS011;47518;51.776;9.370;2023-02-27T09:30:51;9.77;;;4.50;;
61617;SDS011;47518;51.776;9.370;2023-02-27T09:33:16;8.25;;;4.60;;
61617;SDS011;47518;51.776;9.370;2023-02-27T09:35:42;6.68;;;4.15;;
61617;SDS011;47518;51.776;9.370;2023-02-27T09:38:07;6.90;;;4.47;;
61617;SDS011;47518;51.776;9.370;2023-02-27T09:40:36;7.28;;;4.25;;
61617;SDS011;47518;51.776;9.370;2023-02-27T09:43:10;10.07;;;5.50;;
61617;SDS011;47518;51.776;9.370;2023-02-27T09:45:41;7.22;;;5.30;;
61617;SDS011;47518;51.776;9.370;2023-02-27T09:48:10;8.50;;;5.18;;
61617;SDS011;47518;51.776;9.370;2023-02-27T09:50:41;12.20;;;5.60;;
61617;SDS011;47518;51.776;9.370;2023-02-27T09:53:11;9.27;;;5.50;;
61617;SDS011;47518;51.776;9.370;2023-02-27T09:55:43;11.68;;;5.90;;
61617;SDS011;47518;51.776;9.370;2023-02-27T09:58:20;11.88;;;6.10;;
61617;SDS011;47518;51.776;9.370;2023-02-27T10:00:56;8.73;;;5.28;;
61617;SDS011;47518;51.776;9.370;2023-02-27T10:10:25;7.53;;;4.50;;
61617;SDS011;47518;51.776;9.370;2023-02-27T10:15:54;5.55;;;3.13;;
61617;SDS011;47518;51.776;9.370;2023-02-27T10:18:22;5.20;;;3.30;;
61617;SDS011;47518;51.776;9.370;2023-02-27T10:21:07;4.70;;;2.95;;
61617;SDS011;47518;51.776;9.370;2023-02-27T10:23:41;3.38;;;2.88;;
61617;SDS011;47518;51.776;9.370;2023-02-27T10:26:17;5.63;;;2.78;;
61617;SDS011;47518;51.776;9.370;2023-02-27T10:28:46;7.47;;;3.00;;
61617;SDS011;47518;51.776;9.370;2023-02-27T10:31:16;4.15;;;2.50;;
61617;SDS011;47518;51.776;9.370;2023-02-27T10:33:45;4.05;;;2.97;;
61617;SDS011;47518;51.776;9.370;2023-02-27T10:36:12;4.35;;;2.85;;
61617;SDS011;47518;51.776;9.370;2023-02-27T10:41:22;4.03;;;2.70;;
61617;SDS011;47518;51.776;9.370;2023-02-27T10:43:49;4.05;;;2.65;;
61617;SDS011;47518;51.776;9.370;2023-02-27T10:46:24;4.72;;;2.97;;
61617;SDS011;47518;51.776;9.370;2023-02-27T10:48:57;2.88;;;2.65;;
61617;SDS011;47518;51.776;9.370;2023-02-27T10:51:28;3.75;;;3.05;;
61617;SDS011;47518;51.776;9.370;2023-02-27T10:56:43;3.97;;;3.15;;
61617;SDS011;47518;51.776;9.370;2023-02-27T10:59:16;3.67;;;3.10;;
61617;SDS011;47518;51.776;9.370;2023-02-27T11:01:46;5.47;;;3.30;;
61617;SDS011;47518;51.776;9.370;2023-02-27T11:04:21;4.22;;;3.15;;
61617;SDS011;47518;51.776;9.370;2023-02-27T11:06:51;4.00;;;3.22;;
61617;SDS011;47518;51.776;9.370;2023-02-27T11:09:19;4.00;;;2.90;;
61617;SDS011;47518;51.776;9.370;2023-02-27T11:11:46;5.28;;;3.45;;
61617;SDS011;47518;51.776;9.370;2023-02-27T11:17:03;4.13;;;2.90;;
61617;SDS011;47518;51.776;9.370;2023-02-27T11:19:31;4.55;;;2.97;;
61617;SDS011;47518;51.776;9.370;2023-02-27T11:22:03;3.92;;;3.00;;
61617;SDS011;47518;51.776;9.370;2023-02-27T11:24:47;6.13;;;3.03;;
61617;SDS011;47518;51.776;9.370;2023-02-27T11:27:19;4.85;;;2.88;;
61617;SDS011;47518;51.776;9.370;2023-02-27T11:29:58;4.68;;;3.33;;
61617;SDS011;47518;51.776;9.370;2023-02-27T11:32:42;5.38;;;3.15;;
61617;SDS011;47518;51.776;9.370;2023-02-27T11:35:25;9.25;;;5.22;;
61617;SDS011;47518;51.776;9.370;2023-02-27T11:37:55;4.90;;;3.45;;
61617;SDS011;47518;51.776;9.370;2023-02-27T11:40:25;4.75;;;3.58;;
61617;SDS011;47518;51.776;9.370;2023-02-27T11:42:55;4.38;;;3.22;;
61617;SDS011;47518;51.776;9.370;2023-02-27T11:45:30;7.97;;;3.30;;
61617;SDS011;47518;51.776;9.370;2023-02-27T11:47:58;4.43;;;3.40;;
61617;SDS011;47518;51.776;9.370;2023-02-27T11:50:38;4.13;;;3.10;;
61617;SDS011;47518;51.776;9.370;2023-02-27T11:53:27;3.38;;;3.03;;
61617;SDS011;47518;51.776;9.370;2023-02-27T11:56:16;7.60;;;3.30;;
61617;SDS011;47518;51.776;9.370;2023-02-27T11:58:53;4.20;;;3.17;;
61617;SDS011;47518;51.776;9.370;2023-02-27T12:01:30;4.45;;;3.00;;
61617;SDS011;47518;51.776;9.370;2023-02-27T12:04:03;4.65;;;2.92;;
61617;SDS011;47518;51.776;9.370;2023-02-27T12:06:41;3.75;;;3.05;;
61617;SDS011;47518;51.776;9.370;2023-02-27T12:11:57;4.32;;;3.10;;
61617;SDS011;47518;51.776;9.370;2023-02-27T12:14:31;5.65;;;3.00;;
61617;SDS011;47518;51.776;9.370;2023-02-27T12:19:57;3.10;;;2.90;;
61617;SDS011;47518;51.776;9.370;2023-02-27T12:22:32;4.90;;;3.05;;
61617;SDS011;47518;51.776;9.370;2023-02-27T12:28:01;2.83;;;2.63;;
61617;SDS011;47518;51.776;9.370;2023-02-27T12:30:35;3.85;;;2.90;;
61617;SDS011;47518;51.776;9.370;2023-02-27T12:33:12;4.13;;;3.03;;
61617;SDS011;47518;51.776;9.370;2023-02-27T12:35:45;3.30;;;3.00;;
61617;SDS011;47518;51.776;9.370;2023-02-27T12:38:18;3.78;;;3.00;;
61617;SDS011;47518;51.776;9.370;2023-02-27T12:54:18;3.53;;;3.05;;
61617;SDS011;47518;51.776;9.370;2023-02-27T12:59:51;3.00;;;2.80;;
61617;SDS011;47518;51.776;9.370;2023-02-27T13:02:29;3.65;;;2.75;;
61617;SDS011;47518;51.776;9.370;2023-02-27T13:18:37;5.70;;;2.75;;
61617;SDS011;47518;51.776;9.370;2023-02-27T13:21:18;3.15;;;2.85;;
61617;SDS011;47518;51.776;9.370;2023-02-27T13:29:05;3.80;;;2.97;;
61617;SDS011;47518;51.776;9.370;2023-02-27T13:31:38;4.95;;;2.80;;
61617;SDS011;47518;51.776;9.370;2023-02-27T13:34:31;3.85;;;2.72;;
61617;SDS011;47518;51.776;9.370;2023-02-27T13:37:02;4.78;;;2.80;;
61617;SDS011;47518;51.776;9.370;2023-02-27T13:39:36;4.25;;;3.00;;
61617;SDS011;47518;51.776;9.370;2023-02-27T13:52:50;3.10;;;2.80;;
61617;SDS011;47518;51.776;9.370;2023-02-27T13:55:32;4.50;;;3.85;;
61617;SDS011;47518;51.776;9.370;2023-02-27T13:57:59;6.70;;;3.22;;
61617;SDS011;47518;51.776;9.370;2023-02-27T14:00:27;3.50;;;3.20;;
61617;SDS011;47518;51.776;9.370;2023-02-27T14:02:54;4.53;;;3.28;;
61617;SDS011;47518;51.776;9.370;2023-02-27T14:05:28;4.35;;;3.20;;
61617;SDS011;47518;51.776;9.370;2023-02-27T14:08:04;3.70;;;3.25;;
61617;SDS011;47518;51.776;9.370;2023-02-27T14:12:59;5.65;;;3.67;;
61617;SDS011;47518;51.776;9.370;2023-02-27T14:24:27;5.53;;;3.58;;
61617;SDS011;47518;51.776;9.370;2023-02-27T14:27:00;3.97;;;3.40;;
61617;SDS011;47518;51.776;9.370;2023-02-27T14:29:28;4.82;;;3.65;;
61617;SDS011;47518;51.776;9.370;2023-02-27T14:31:58;4.13;;;3.70;;
61617;SDS011;47518;51.776;9.370;2023-02-27T14:34:26;5.43;;;3.30;;
61617;SDS011;47518;51.776;9.370;2023-02-27T14:36:52;4.20;;;3.60;;
61617;SDS011;47518;51.776;9.370;2023-02-27T14:39:21;5.50;;;3.70;;
61617;SDS011;47518;51.776;9.370;2023-02-27T14:44:52;4.07;;;3.33;;
61617;SDS011;47518;51.776;9.370;2023-02-27T14:47:27;6.25;;;3.20;;
61617;SDS011;47518;51.776;9.370;2023-02-27T14:49:56;4.32;;;2.80;;
61617;SDS011;47518;51.776;9.370;2023-02-27T14:52:24;5.60;;;3.30;;
61617;SDS011;47518;51.776;9.370;2023-02-27T14:54:51;3.92;;;2.90;;
61617;SDS011;47518;51.776;9.370;2023-02-27T14:57:21;3.05;;;2.70;;
61617;SDS011;47518;51.776;9.370;2023-02-27T14:59:50;4.35;;;3.25;;
61617;SDS011;47518;51.776;9.370;2023-02-27T15:02:22;5.03;;;3.05;;
61617;SDS011;47518;51.776;9.370;2023-02-27T15:18:12;5.32;;;3.33;;
61617;SDS011;47518;51.776;9.370;2023-02-27T15:20:39;5.00;;;3.60;;
61617;SDS011;47518;51.776;9.370;2023-02-27T15:23:21;5.57;;;3.92;;
61617;SDS011;47518;51.776;9.370;2023-02-27T15:25:52;3.67;;;3.33;;
61617;SDS011;47518;51.776;9.370;2023-02-27T15:28:25;3.90;;;3.50;;
61617;SDS011;47518;51.776;9.370;2023-02-27T15:31:01;5.35;;;3.80;;
61617;SDS011;47518;51.776;9.370;2023-02-27T15:33:27;6.68;;;3.40;;
61617;SDS011;47518;51.776;9.370;2023-02-27T15:36:02;4.15;;;3.42;;
61617;SDS011;47518;51.776;9.370;2023-02-27T15:38:29;5.50;;;3.78;;
61617;SDS011;47518;51.776;9.370;2023-02-27T15:40:56;4.88;;;3.50;;
61617;SDS011;47518;51.776;9.370;2023-02-27T15:43:23;3.72;;;3.40;;
61617;SDS011;47518;51.776;9.370;2023-02-27T15:45:50;3.10;;;2.80;;
61617;SDS011;47518;51.776;9.370;2023-02-27T15:48:18;5.35;;;3.13;;
61617;SDS011;47518;51.776;9.370;2023-02-27T15:50:45;5.15;;;2.80;;
61617;SDS011;47518;51.776;9.370;2023-02-27T15:53:14;3.30;;;3.00;;
61617;SDS011;47518;51.776;9.370;2023-02-27T15:55:48;4.32;;;2.90;;
61617;SDS011;47518;51.776;9.370;2023-02-27T16:03:43;4.63;;;3.10;;
61617;SDS011;47518;51.776;9.370;2023-02-27T16:06:11;3.22;;;2.90;;
61617;SDS011;47518;51.776;9.370;2023-02-27T16:08:45;7.55;;;4.40;;
61617;SDS011;47518;51.776;9.370;2023-02-27T16:11:16;6.85;;;4.90;;
61617;SDS011;47518;51.776;9.370;2023-02-27T16:13:46;11.60;;;5.85;;
61617;SDS011;47518;51.776;9.370;2023-02-27T16:22:02;6.30;;;4.20;;
61617;SDS011;47518;51.776;9.370;2023-02-27T16:24:44;7.88;;;4.03;;
61617;SDS011;47518;51.776;9.370;2023-02-27T16:27:14;7.63;;;4.60;;
61617;SDS011;47518;51.776;9.370;2023-02-27T16:29:47;5.65;;;4.60;;
61617;SDS011;47518;51.776;9.370;2023-02-27T16:32:19;7.93;;;5.13;;
61617;SDS011;47518;51.776;9.370;2023-02-27T16:34:48;6.55;;;5.10;;
61617;SDS011;47518;51.776;9.370;2023-02-27T16:37:22;6.70;;;5.03;;
61617;SDS011;47518;51.776;9.370;2023-02-27T16:39:53;7.00;;;4.43;;
61617;SDS011;47518;51.776;9.370;2023-02-27T16:42:19;8.30;;;4.72;;
61617;SDS011;47518;51.776;9.370;2023-02-27T16:44:45;7.13;;;4.50;;
61617;SDS011;47518;51.776;9.370;2023-02-27T16:47:13;9.55;;;5.00;;
61617;SDS011;47518;51.776;9.370;2023-02-27T16:49:38;6.05;;;5.05;;
61617;SDS011;47518;51.776;9.370;2023-02-27T16:52:05;6.85;;;4.82;;
61617;SDS011;47518;51.776;9.370;2023-02-27T16:54:34;6.28;;;4.95;;
61617;SDS011;47518;51.776;9.370;2023-02-27T16:57:00;6.93;;;5.25;;
61617;SDS011;47518;51.776;9.370;2023-02-27T16:59:31;6.63;;;5.28;;
61617;SDS011;47518;51.776;9.370;2023-02-27T17:01:59;4.88;;;4.38;;
61617;SDS011;47518;51.776;9.370;2023-02-27T17:04:26;8.30;;;4.57;;
61617;SDS011;47518;51.776;9.370;2023-02-27T17:06:53;5.60;;;4.50;;
61617;SDS011;47518;51.776;9.370;2023-02-27T17:09:19;5.00;;;4.05;;
61617;SDS011;47518;51.776;9.370;2023-02-27T17:11:45;5.60;;;4.70;;
61617;SDS011;47518;51.776;9.370;2023-02-27T17:14:10;5.93;;;4.78;;
61617;SDS011;47518;51.776;9.370;2023-02-27T17:16:36;6.35;;;5.35;;
61617;SDS011;47518;51.776;9.370;2023-02-27T17:19:01;9.13;;;5.20;;
61617;SDS011;47518;51.776;9.370;2023-02-27T17:21:27;7.22;;;5.15;;
61617;SDS011;47518;51.776;9.370;2023-02-27T17:23:52;5.78;;;4.35;;
61617;SDS011;47518;51.776;9.370;2023-02-27T17:26:18;7.28;;;5.10;;
61617;SDS011;47518;51.776;9.370;2023-02-27T17:28:43;6.57;;;5.20;;
61617;SDS011;47518;51.776;9.370;2023-02-27T17:31:09;6.90;;;5.40;;
61617;SDS011;47518;51.776;9.370;2023-02-27T17:33:35;7.35;;;5.32;;
61617;SDS011;47518;51.776;9.370;2023-02-27T17:36:02;9.77;;;5.50;;
61617;SDS011;47518;51.776;9.370;2023-02-27T17:38:29;8.38;;;5.95;;
61617;SDS011;47518;51.776;9.370;2023-02-27T17:40:54;13.50;;;6.43;;
61617;SDS011;47518;51.776;9.370;2023-02-27T17:43:19;8.57;;;6.05;;
61617;SDS011;47518;51.776;9.370;2023-02-27T17:45:45;9.15;;;5.80;;
61617;SDS011;47518;51.776;9.370;2023-02-27T17:48:10;7.45;;;5.60;;
61617;SDS011;47518;51.776;9.370;2023-02-27T17:50:36;7.75;;;5.15;;
61617;SDS011;47518;51.776;9.370;2023-02-27T17:53:02;7.63;;;5.68;;
61617;SDS011;47518;51.776;9.370;2023-02-27T17:55:28;8.00;;;5.57;;
61617;SDS011;47518;51.776;9.370;2023-02-27T17:57:53;7.32;;;5.45;;
61617;SDS011;47518;51.776;9.370;2023-02-27T18:00:19;10.50;;;5.93;;
61617;SDS011;47518;51.776;9.370;2023-02-27T18:02:45;8.20;;;5.78;;
61617;SDS011;47518;51.776;9.370;2023-02-27T18:05:11;9.30;;;6.00;;
61617;SDS011;47518;51.776;9.370;2023-02-27T18:07:37;9.93;;;6.03;;
61617;SDS011;47518;51.776;9.370;2023-02-27T18:10:03;9.02;;;6.30;;
61617;SDS011;47518;51.776;9.370;2023-02-27T18:12:30;9.70;;;6.07;;
61617;SDS011;47518;51.776;9.370;2023-02-27T18:14:55;8.95;;;6.15;;
61617;SDS011;47518;51.776;9.370;2023-02-27T18:17:21;8.50;;;5.80;;
61617;SDS011;47518;51.776;9.370;2023-02-27T18:19:46;8.00;;;5.60;;
61617;SDS011;47518;51.776;9.370;2023-02-27T18:22:11;10.68;;;6.05;;
61617;SDS011;47518;51.776;9.370;2023-02-27T18:24:39;8.88;;;5.70;;
61617;SDS011;47518;51.776;9.370;2023-02-27T18:27:04;7.35;;;6.00;;
61617;SDS011;47518;51.776;9.370;2023-02-27T18:32:55;11.32;;;6.30;;
61617;SDS011;47518;51.776;9.370;2023-02-27T18:35:22;11.07;;;6.10;;
61617;SDS011;47518;51.776;9.370;2023-02-27T18:37:47;8.98;;;6.53;;
61617;SDS011;47518;51.776;9.370;2023-02-27T18:40:13;9.07;;;6.60;;
61617;SDS011;47518;51.776;9.370;2023-02-27T18:42:39;8.00;;;6.07;;
61617;SDS011;47518;51.776;9.370;2023-02-27T18:45:05;9.55;;;6.40;;
61617;SDS011;47518;51.776;9.370;2023-02-27T18:47:31;9.48;;;5.55;;
61617;SDS011;47518;51.776;9.370;2023-02-27T18:49:56;10.68;;;6.50;;
61617;SDS011;47518;51.776;9.370;2023-02-27T18:52:21;11.65;;;6.53;;
61617;SDS011;47518;51.776;9.370;2023-02-27T18:54:47;8.80;;;6.47;;
61617;SDS011;47518;51.776;9.370;2023-02-27T18:57:12;13.93;;;7.78;;
61617;SDS011;47518;51.776;9.370;2023-02-27T18:59:37;10.32;;;6.80;;
61617;SDS011;47518;51.776;9.370;2023-02-27T19:02:05;10.32;;;6.57;;
61617;SDS011;47518;51.776;9.370;2023-02-27T19:04:31;14.00;;;7.97;;